Time;durP1;ratioP1;P1;durP2;ratioP2;P2;SDS_P1;SDS_P2;PMS_P1;PMS_P2;Temp;Humidity;BMP_temperature;BMP_pressure;BME280_temperature;BME280_humidity;BME280_pressure;Samples;Min_cycle;Max_cycle;Signal;HPM_P1;HPM_P2
2022/03/03 00:00:10;;;;;;;75.28;37.20;;;1.50;99.90;;;;;;5116504;27;20020;-83
2022/03/03 00:02:36;;;;;;;76.70;37.05;;;1.40;99.90;;;;;;5115700;28;20394;-83
2022/03/03 00:05:03;;;;;;;74.15;36.40;;;1.40;99.90;;;;;;5115228;28;20023;-83
2022/03/03 00:07:28;;;;;;;79.25;37.70;;;1.40;99.90;;;;;;5115188;28;20020;-82
2022/03/03 00:09:54;;;;;;;73.90;36.40;;;1.40;99.90;;;;;;5114839;28;20088;-82
2022/03/03 00:12:20;;;;;;;69.25;35.22;;;1.50;99.90;;;;;;5115020;28;20035;-82
2022/03/03 00:14:45;;;;;;;74.30;37.58;;;1.40;99.90;;;;;;5114877;28;20085;-82
2022/03/03 00:17:12;;;;;;;72.78;37.90;;;1.40;99.90;;;;;;5116073;28;20027;-82
2022/03/03 00:19:37;;;;;;;75.80;36.90;;;1.30;99.90;;;;;;5114546;28;20110;-84
2022/03/03 00:22:03;;;;;;;80.93;38.30;;;1.30;99.90;;;;;;5114913;28;20065;-83
2022/03/03 00:24:29;;;;;;;75.85;38.88;;;1.40;99.90;;;;;;5115765;28;20028;-83
2022/03/03 00:26:55;;;;;;;69.03;36.17;;;1.30;99.90;;;;;;5115624;28;20020;-84
2022/03/03 00:29:20;;;;;;;73.85;36.42;;;1.30;99.90;;;;;;5114426;28;20032;-84
2022/03/03 00:31:46;;;;;;;78.47;38.28;;;1.30;99.90;;;;;;5116352;28;20443;-83
2022/03/03 00:34:13;;;;;;;74.13;36.78;;;1.20;99.90;;;;;;5114730;28;20063;-84
2022/03/03 00:36:40;;;;;;;73.75;36.42;;;1.20;99.90;;;;;;5115831;28;20024;-83
2022/03/03 00:39:06;;;;;;;69.55;35.47;;;1.10;99.90;;;;;;5115107;28;20406;-85
2022/03/03 00:41:32;;;;;;;69.97;35.92;;;1.10;99.90;;;;;;5114405;28;20016;-84
2022/03/03 00:43:58;;;;;;;70.18;35.55;;;1.10;99.90;;;;;;5114105;28;20068;-84
2022/03/03 00:46:26;;;;;;;70.55;35.58;;;1.00;99.90;;;;;;5114521;28;20077;-84
2022/03/03 00:48:54;;;;;;;67.43;33.35;;;1.00;99.90;;;;;;5114153;28;20022;-84
2022/03/03 00:51:23;;;;;;;73.63;35.60;;;0.90;99.90;;;;;;5114006;28;20023;-84
2022/03/03 00:53:50;;;;;;;73.68;36.70;;;0.90;99.90;;;;;;5115226;28;20031;-83
2022/03/03 00:56:17;;;;;;;68.35;35.30;;;0.90;99.90;;;;;;5114120;28;20070;-84
2022/03/03 00:58:43;;;;;;;73.53;36.90;;;0.90;99.90;;;;;;5114079;28;20019;-84
2022/03/03 01:01:11;;;;;;;69.57;35.92;;;0.90;99.90;;;;;;5113420;28;20024;-84
2022/03/03 01:03:36;;;;;;;70.10;34.85;;;0.90;99.90;;;;;;5096163;28;20031;-83
2022/03/03 01:06:02;;;;;;;64.82;33.25;;;0.90;99.90;;;;;;5113795;28;20039;-84
2022/03/03 01:08:28;;;;;;;72.85;35.95;;;0.90;99.90;;;;;;5113794;28;20095;-84
2022/03/03 01:10:54;;;;;;;66.38;35.53;;;0.80;99.90;;;;;;5114786;28;20159;-84
2022/03/03 01:13:21;;;;;;;67.38;34.30;;;0.70;99.90;;;;;;5113613;28;20034;-83
2022/03/03 01:16:08;;;;;;;67.93;34.85;;;0.70;99.90;;;;;;5114958;28;20030;-84
2022/03/03 01:18:34;;;;;;;66.88;34.70;;;0.70;99.90;;;;;;5114853;28;20127;-84
2022/03/03 01:21:00;;;;;;;67.65;35.83;;;0.70;99.90;;;;;;5097305;28;20467;-83
2022/03/03 01:23:26;;;;;;;71.90;35.38;;;0.60;99.90;;;;;;5114283;28;20455;-83
2022/03/03 01:25:51;;;;;;;71.10;35.58;;;0.60;99.90;;;;;;5114813;28;20080;-84
2022/03/03 01:28:17;;;;;;;70.00;33.63;;;0.40;99.90;;;;;;5096207;28;20414;-84
2022/03/03 01:30:43;;;;;;;72.82;35.45;;;0.40;99.90;;;;;;5096955;28;20367;-83
2022/03/03 01:33:12;;;;;;;67.95;35.60;;;0.40;99.90;;;;;;5113507;28;20028;-83
2022/03/03 01:35:38;;;;;;;76.53;36.08;;;0.40;99.90;;;;;;5113563;28;20416;-83
2022/03/03 01:38:04;;;;;;;70.28;35.85;;;0.30;99.90;;;;;;5114096;28;20028;-83
2022/03/03 01:40:30;;;;;;;72.63;36.17;;;0.20;99.90;;;;;;5079979;28;20147;-83
2022/03/03 01:42:55;;;;;;;71.93;36.50;;;0.20;99.90;;;;;;5096795;28;20039;-83
2022/03/03 01:45:21;;;;;;;70.00;35.10;;;0.10;99.90;;;;;;5080000;28;20122;-83
2022/03/03 01:47:47;;;;;;;73.88;35.72;;;0.00;99.90;;;;;;5113444;28;20475;-83
2022/03/03 01:50:14;;;;;;;70.90;34.95;;;0.00;99.90;;;;;;5113088;28;20529;-83
2022/03/03 01:52:39;;;;;;;69.40;32.63;;;0.00;99.90;;;;;;5112874;28;20031;-83
2022/03/03 01:55:06;;;;;;;70.93;35.88;;;-0.10;99.90;;;;;;5114505;28;20344;-83
2022/03/03 01:57:32;;;;;;;71.30;35.28;;;-0.20;99.90;;;;;;5113345;28;20023;-83
2022/03/03 01:59:58;;;;;;;68.05;34.15;;;-0.20;99.90;;;;;;5113747;28;20111;-83
2022/03/03 02:02:27;;;;;;;73.70;35.80;;;-0.30;99.90;;;;;;5096260;28;20027;-83
2022/03/03 02:04:52;;;;;;;68.32;35.53;;;-0.30;99.90;;;;;;5116029;28;20352;-83
2022/03/03 02:07:18;;;;;;;74.45;37.22;;;-0.30;99.90;;;;;;5116570;28;20109;-83
2022/03/03 02:09:44;;;;;;;69.40;34.90;;;-0.30;99.90;;;;;;5118494;28;20024;-83
2022/03/03 02:12:10;;;;;;;72.93;35.47;;;-0.40;99.90;;;;;;5100628;28;20032;-84
2022/03/03 02:14:44;;;;;;;72.88;36.10;;;-0.40;99.90;;;;;;5116471;28;20383;-83
2022/03/03 02:17:11;;;;;;;68.78;34.35;;;-0.40;99.90;;;;;;5120773;28;20044;-83
2022/03/03 02:19:37;;;;;;;75.72;36.53;;;-0.40;99.90;;;;;;5122639;28;20027;-82
2022/03/03 02:22:03;;;;;;;71.82;36.08;;;-0.40;99.90;;;;;;5123180;28;20512;-84
2022/03/03 02:24:29;;;;;;;66.38;34.42;;;-0.50;99.90;;;;;;5124178;28;20043;-83
2022/03/03 02:26:55;;;;;;;73.18;35.90;;;-0.50;99.90;;;;;;5118083;28;20383;-83
2022/03/03 02:29:21;;;;;;;72.07;36.47;;;-0.40;99.90;;;;;;5113350;28;20024;-83
2022/03/03 02:31:48;;;;;;;66.43;34.63;;;-0.50;99.90;;;;;;5096382;28;20509;-83
2022/03/03 02:34:14;;;;;;;73.53;35.60;;;-0.50;99.90;;;;;;5113868;28;20067;-81
2022/03/03 02:36:39;;;;;;;75.32;36.03;;;-0.50;99.90;;;;;;5113825;28;20429;-82
2022/03/03 02:39:05;;;;;;;76.00;36.92;;;-0.50;99.90;;;;;;5111895;28;20020;-83
2022/03/03 02:41:31;;;;;;;74.45;36.45;;;-0.50;99.90;;;;;;5114168;28;20060;-83
2022/03/03 02:43:59;;;;;;;74.97;36.50;;;-0.60;99.90;;;;;;5112647;28;20521;-83
2022/03/03 02:46:25;;;;;;;72.65;37.45;;;-0.60;99.90;;;;;;5114581;28;20035;-82
2022/03/03 02:48:51;;;;;;;76.57;37.58;;;-0.60;99.90;;;;;;5114632;28;20016;-83
2022/03/03 02:51:17;;;;;;;72.50;35.78;;;-0.70;99.90;;;;;;5112813;28;20376;-83
2022/03/03 02:53:43;;;;;;;70.30;34.92;;;-0.60;99.90;;;;;;5113837;28;20032;-82
2022/03/03 02:56:09;;;;;;;70.10;35.45;;;-0.60;99.90;;;;;;5112186;28;20052;-87
2022/03/03 02:58:35;;;;;;;72.35;37.78;;;-0.60;99.90;;;;;;5113628;28;20514;-87
2022/03/03 03:01:02;;;;;;;69.85;35.17;;;-0.60;99.90;;;;;;5112864;28;20026;-88
2022/03/03 03:03:31;;;;;;;77.47;36.22;;;-0.70;99.90;;;;;;5113358;28;20493;-88
2022/03/03 03:05:58;;;;;;;79.25;37.75;;;-0.60;99.90;;;;;;5113029;28;20340;-87
2022/03/03 03:08:29;;;;;;;76.70;37.60;;;-0.60;99.90;;;;;;5114220;28;20027;-88
2022/03/03 03:10:57;;;;;;;75.00;36.70;;;-0.60;99.90;;;;;;5114052;28;20054;-88
2022/03/03 03:13:23;;;;;;;76.10;36.97;;;-0.60;99.90;;;;;;5112516;28;20038;-87
2022/03/03 03:15:51;;;;;;;70.43;34.85;;;-0.70;99.90;;;;;;5112802;28;20040;-88
2022/03/03 03:18:19;;;;;;;72.05;35.28;;;-0.70;99.90;;;;;;5096442;28;20028;-87
2022/03/03 03:20:57;;;;;;;75.72;36.83;;;-0.70;99.90;;;;;;5114395;28;20028;-88
2022/03/03 03:23:24;;;;;;;74.13;35.25;;;-0.70;99.90;;;;;;5113643;28;20478;-87
2022/03/03 03:26:01;;;;;;;74.55;37.70;;;-0.60;99.90;;;;;;5122880;28;20020;-88
2022/03/03 03:28:30;;;;;;;74.28;37.25;;;-0.60;99.90;;;;;;5126817;28;20023;-88
2022/03/03 03:30:56;;;;;;;82.03;37.35;;;-0.60;99.90;;;;;;5116754;28;20055;-89
2022/03/03 03:33:21;;;;;;;79.95;36.53;;;-0.60;99.90;;;;;;5117296;28;20034;-88
2022/03/03 03:35:50;;;;;;;73.60;36.33;;;-0.50;99.90;;;;;;5116377;28;20352;-88
2022/03/03 03:38:16;;;;;;;75.85;37.70;;;-0.50;99.90;;;;;;5116274;28;20034;-88
2022/03/03 03:40:42;;;;;;;74.00;37.78;;;-0.50;99.90;;;;;;5115792;28;20027;-88
2022/03/03 03:43:08;;;;;;;76.40;37.08;;;-0.40;99.90;;;;;;5115909;28;20105;-88
2022/03/03 03:45:36;;;;;;;83.10;37.47;;;-0.40;99.90;;;;;;5115758;28;20063;-88
2022/03/03 03:48:02;;;;;;;76.88;36.95;;;-0.30;99.90;;;;;;5116298;28;20019;-88
2022/03/03 03:50:28;;;;;;;74.22;35.95;;;-0.30;99.90;;;;;;5099675;28;20031;-88
2022/03/03 03:52:57;;;;;;;77.22;37.50;;;-0.30;99.90;;;;;;5131285;28;20028;-88
2022/03/03 03:55:28;;;;;;;70.03;37.72;;;-0.30;99.90;;;;;;5134553;28;20050;-89
2022/03/03 03:57:56;;;;;;;72.65;36.10;;;-0.30;99.90;;;;;;5134057;28;20026;-88
2022/03/03 04:00:22;;;;;;;72.32;36.10;;;-0.30;99.90;;;;;;5130837;28;20028;-88
2022/03/03 04:02:50;;;;;;;70.93;34.85;;;-0.30;99.90;;;;;;5124419;28;20027;-88
2022/03/03 04:05:23;;;;;;;73.25;36.80;;;-0.30;99.90;;;;;;5116607;28;20451;-89
2022/03/03 04:07:54;;;;;;;69.57;34.75;;;-0.30;99.90;;;;;;5116746;28;20127;-86
2022/03/03 04:10:20;;;;;;;66.20;34.28;;;-0.30;99.90;;;;;;5117998;28;20416;-87
2022/03/03 04:12:53;;;;;;;73.68;36.63;;;-0.30;99.90;;;;;;5115944;28;20020;-87
2022/03/03 04:15:19;;;;;;;69.40;34.50;;;-0.20;99.90;;;;;;5116592;28;20021;-88
2022/03/03 04:17:45;;;;;;;71.13;35.33;;;-0.20;99.90;;;;;;5115176;28;20027;-87
2022/03/03 04:20:14;;;;;;;68.28;34.17;;;-0.20;99.90;;;;;;5115247;28;20059;-88
2022/03/03 04:22:41;;;;;;;65.90;35.33;;;-0.20;99.90;;;;;;5098394;28;20031;-87
2022/03/03 04:25:11;;;;;;;70.60;35.70;;;-0.30;99.90;;;;;;5115628;28;20363;-87
2022/03/03 04:27:40;;;;;;;72.40;36.05;;;-0.20;99.90;;;;;;5115120;28;20023;-87
2022/03/03 04:30:10;;;;;;;63.65;35.70;;;-0.20;99.90;;;;;;5114901;28;20451;-87
2022/03/03 04:32:40;;;;;;;70.15;35.67;;;-0.30;99.90;;;;;;5114938;28;20028;-87
2022/03/03 04:35:06;;;;;;;60.70;33.78;;;-0.30;99.90;;;;;;5114359;28;20020;-87
2022/03/03 04:37:32;;;;;;;70.45;36.80;;;-0.30;99.90;;;;;;5114861;28;20027;-87
2022/03/03 04:39:58;;;;;;;79.28;37.78;;;-0.30;99.90;;;;;;5114432;28;20035;-88
2022/03/03 04:42:28;;;;;;;70.03;34.15;;;-0.30;99.90;;;;;;5114999;28;20036;-88
2022/03/03 04:44:57;;;;;;;64.13;35.10;;;-0.30;99.90;;;;;;5114847;28;20027;-88
2022/03/03 04:47:26;;;;;;;71.25;35.85;;;-0.30;99.90;;;;;;5115518;28;20031;-88
2022/03/03 04:50:00;;;;;;;68.40;34.08;;;-0.40;99.90;;;;;;5115535;28;20023;-88
2022/03/03 04:52:31;;;;;;;66.03;33.95;;;-0.30;99.90;;;;;;5114688;28;20038;-89
2022/03/03 04:54:57;;;;;;;61.88;32.55;;;-0.30;99.90;;;;;;5115136;28;20062;-87
2022/03/03 04:57:25;;;;;;;60.78;32.25;;;-0.30;99.90;;;;;;5114261;28;20062;-89
2022/03/03 04:59:53;;;;;;;67.50;33.22;;;-0.40;99.90;;;;;;5097879;28;20023;-89
2022/03/03 05:02:19;;;;;;;65.35;32.80;;;-0.40;99.90;;;;;;5115050;28;20024;-89
2022/03/03 05:04:45;;;;;;;61.55;30.75;;;-0.40;99.90;;;;;;5114747;28;20031;-89
2022/03/03 05:07:21;;;;;;;;;;;;;;;;;;;;;
2022/03/03 05:09:47;;;;;;;54.42;29.45;;;-0.30;99.90;;;;;;5116381;28;20025;-89
2022/03/03 05:12:15;;;;;;;57.35;30.83;;;-0.30;99.90;;;;;;5114204;28;20111;-88
2022/03/03 05:14:41;;;;;;;59.83;31.17;;;-0.30;99.90;;;;;;5113987;28;20083;-88
2022/03/03 05:17:17;;;;;;;;;;;;;;;;;;;;;
2022/03/03 05:19:43;;;;;;;57.85;30.60;;;-0.30;99.90;;;;;;5120506;28;20118;-82
2022/03/03 05:22:11;;;;;;;52.20;28.88;;;-0.20;99.90;;;;;;5117568;28;20448;-84
2022/03/03 05:24:38;;;;;;;58.63;30.88;;;-0.30;99.90;;;;;;5117320;28;20016;-86
2022/03/03 05:27:04;;;;;;;57.22;29.83;;;-0.10;99.90;;;;;;5116137;28;20047;-81
2022/03/03 05:29:30;;;;;;;59.03;30.48;;;-0.20;99.90;;;;;;5116931;28;20028;-82
2022/03/03 05:31:58;;;;;;;60.58;31.30;;;-0.20;99.90;;;;;;5114577;28;20023;-83
2022/03/03 05:34:25;;;;;;;62.72;30.90;;;-0.30;99.90;;;;;;5113754;28;20095;-82
2022/03/03 05:36:51;;;;;;;57.53;31.35;;;-0.40;99.90;;;;;;5115294;28;20336;-83
2022/03/03 05:39:17;;;;;;;55.83;30.75;;;-0.40;99.90;;;;;;5096054;28;20035;-82
2022/03/03 05:41:43;;;;;;;57.80;31.13;;;-0.40;99.90;;;;;;5114548;28;20026;-82
2022/03/03 05:44:14;;;;;;;58.35;30.17;;;-0.50;99.90;;;;;;5078894;28;20119;-82
2022/03/03 05:46:43;;;;;;;51.25;29.73;;;-0.50;99.90;;;;;;5096713;28;20033;-82
2022/03/03 05:49:10;;;;;;;60.63;29.80;;;-0.60;99.90;;;;;;5095922;28;20041;-85
2022/03/03 05:51:36;;;;;;;53.17;28.60;;;-0.60;99.90;;;;;;5113601;28;20023;-84
2022/03/03 05:54:03;;;;;;;56.28;30.42;;;-0.70;99.90;;;;;;5112893;28;20026;-84
2022/03/03 05:56:32;;;;;;;58.47;30.17;;;-0.70;99.90;;;;;;5113070;28;20059;-84
2022/03/03 05:59:02;;;;;;;54.25;29.50;;;-0.70;99.90;;;;;;5113097;28;20027;-85
2022/03/03 06:01:28;;;;;;;52.03;28.17;;;-0.60;99.90;;;;;;5114396;28;20047;-85
2022/03/03 06:03:59;;;;;;;62.53;30.02;;;-0.60;99.90;;;;;;5078742;28;20031;-84
2022/03/03 06:06:31;;;;;;;56.47;29.90;;;-0.50;99.90;;;;;;5112896;28;20032;-85
2022/03/03 06:08:59;;;;;;;56.72;28.70;;;-0.50;99.90;;;;;;5113070;28;20027;-85
2022/03/03 06:11:27;;;;;;;55.83;30.30;;;-0.60;99.90;;;;;;5114339;28;20015;-85
2022/03/03 06:14:09;;;;;;;53.13;28.92;;;-0.60;99.90;;;;;;5095922;28;20032;-85
2022/03/03 06:16:35;;;;;;;;;;;-0.50;99.90;;;;;;5096529;28;20130;-84
2022/03/03 06:19:02;;;;;;;50.65;27.42;;;-0.50;99.90;;;;;;5112875;28;19908;-86
2022/03/03 06:21:28;;;;;;;55.42;28.90;;;-0.50;99.90;;;;;;5113987;28;20340;-85
2022/03/03 06:23:53;;;;;;;51.22;29.17;;;-0.50;99.90;;;;;;5095693;28;20034;-86
2022/03/03 06:26:20;;;;;;;54.00;29.05;;;-0.60;99.90;;;;;;5096494;28;20114;-84
2022/03/03 06:28:46;;;;;;;60.45;31.08;;;-0.60;99.90;;;;;;5095671;28;20383;-84
2022/03/03 06:31:13;;;;;;;53.63;29.67;;;-0.60;99.90;;;;;;5095531;28;20077;-87
2022/03/03 06:33:40;;;;;;;52.55;28.92;;;-0.50;99.90;;;;;;5095952;28;20055;-85
2022/03/03 06:36:07;;;;;;;51.63;29.67;;;-0.50;99.90;;;;;;5113896;28;20020;-84
2022/03/03 06:38:33;;;;;;;52.40;29.52;;;-0.50;99.90;;;;;;5112563;28;20464;-84
2022/03/03 06:40:59;;;;;;;49.92;27.80;;;-0.50;99.90;;;;;;5112732;28;20069;-85
2022/03/03 06:43:29;;;;;;;49.67;27.23;;;-0.50;99.90;;;;;;5114436;28;20044;-85
2022/03/03 06:45:56;;;;;;;56.15;28.08;;;-0.50;99.90;;;;;;5113695;28;20076;-85
2022/03/03 06:48:22;;;;;;;47.92;27.65;;;-0.50;99.90;;;;;;5114029;28;20020;-84
2022/03/03 06:50:52;;;;;;;51.03;28.42;;;-0.40;99.90;;;;;;5096227;28;20027;-84
2022/03/03 06:53:30;;;;;;;50.38;26.55;;;-0.40;99.90;;;;;;5112231;28;20028;-85
2022/03/03 06:56:05;;;;;;;48.63;27.48;;;-0.30;99.90;;;;;;5113825;28;20088;-85
2022/03/03 06:58:32;;;;;;;48.25;26.40;;;-0.30;99.90;;;;;;5112425;28;20463;-85
2022/03/03 07:01:00;;;;;;;48.78;27.42;;;-0.30;99.90;;;;;;5113725;28;20463;-85
2022/03/03 07:03:27;;;;;;;47.40;26.85;;;-0.30;99.90;;;;;;5116440;28;20479;-85
2022/03/03 07:05:53;;;;;;;51.05;27.05;;;-0.20;99.90;;;;;;5115961;28;20041;-85
2022/03/03 07:08:20;;;;;;;51.25;26.38;;;-0.20;99.90;;;;;;5099117;28;20031;-85
2022/03/03 07:10:49;;;;;;;49.67;28.33;;;-0.10;99.90;;;;;;5116035;28;20026;-84
2022/03/03 07:13:19;;;;;;;47.95;27.08;;;0.00;99.90;;;;;;5099039;28;20081;-85
2022/03/03 07:15:51;;;;;;;49.35;27.60;;;0.00;99.90;;;;;;5082471;28;20514;-86
2022/03/03 07:18:22;;;;;;;44.83;26.00;;;0.10;99.90;;;;;;5116504;28;20031;-89
2022/03/03 07:21:16;;;;;;;47.17;25.50;;;0.10;99.90;;;;;;5116854;28;20016;-85
2022/03/03 07:23:53;;;;;;;50.58;26.23;;;0.20;99.90;;;;;;5118916;28;20522;-85
2022/03/03 07:26:20;;;;;;;45.75;24.90;;;0.20;99.90;;;;;;5124708;28;20034;-82
2022/03/03 07:28:51;;;;;;;47.40;27.23;;;0.20;99.90;;;;;;5116247;28;20027;-85
2022/03/03 07:31:22;;;;;;;51.23;25.10;;;0.30;99.90;;;;;;5116542;28;20020;-87
2022/03/03 07:33:58;;;;;;;48.63;27.05;;;0.30;99.90;;;;;;5117772;28;20092;-90
2022/03/03 07:36:39;;;;;;;43.90;24.80;;;0.30;99.90;;;;;;5118654;28;20028;-90
2022/03/03 07:39:13;;;;;;;49.05;27.25;;;0.30;99.90;;;;;;5117508;28;20534;-92
2022/03/03 07:45:32;;;;;;;47.08;26.60;;;0.50;99.90;;;;;;5111264;28;20484;-93
2022/03/03 07:48:58;;;;;;;;;;;;;;;;;;;;;
2022/03/03 07:51:20;;;;;;;;;;;;;;;;;;;;;
2022/03/03 07:54:31;;;;;;;44.03;26.95;;;0.70;99.90;;;;;;5121550;28;20091;-94
2022/03/03 08:00:40;;;;;;;;;;;;;;;;;;;;;
2022/03/03 08:03:42;;;;;;;48.35;25.67;;;1.10;99.90;;;;;;5119525;28;20023;-92
2022/03/03 08:06:14;;;;;;;45.65;25.95;;;1.10;99.90;;;;;;5119797;28;20027;-86
2022/03/03 08:08:44;;;;;;;48.67;26.30;;;1.20;99.90;;;;;;5117992;28;20387;-88
2022/03/03 08:11:19;;;;;;;44.35;26.00;;;1.30;99.90;;;;;;5123617;28;20434;-89
2022/03/03 08:13:54;;;;;;;43.75;24.25;;;1.40;99.90;;;;;;5118241;28;20118;-88
2022/03/03 08:16:26;;;;;;;44.85;25.08;;;1.50;99.90;;;;;;5117053;28;20023;-89
2022/03/03 08:19:18;;;;;;;44.97;24.38;;;1.50;99.90;;;;;;5101447;28;20031;-93
2022/03/03 08:21:59;;;;;;;43.47;24.67;;;1.60;99.90;;;;;;5117839;28;20022;-91
2022/03/03 08:24:43;;;;;;;;;;;;;;;;;;;;;
2022/03/03 08:28:27;;;;;;;;;;;;;;;;;;;;;
2022/03/03 08:34:51;;;;;;;40.30;22.85;;;2.20;99.90;;;;;;5018003;28;20146;-93
2022/03/03 08:41:45;;;;;;;;;;;;;;;;;;;;;
2022/03/03 08:44:40;;;;;;;;;;;;;;;;;;;;;
2022/03/03 08:50:19;;;;;;;39.83;23.38;;;2.80;99.90;;;;;;5117681;28;20026;-94
2022/03/03 08:53:17;;;;;;;38.90;22.02;;;3.00;99.90;;;;;;5099398;28;20081;-94
2022/03/03 08:56:04;;;;;;;;;;;;;;;;;;;;;
2022/03/03 08:58:42;;;;;;;34.80;21.42;;;3.30;99.90;;;;;;5116513;28;20022;-94
2022/03/03 09:01:46;;;;;;;35.88;21.30;;;3.40;99.90;;;;;;5115525;28;20047;-94
2022/03/03 09:10:30;;;;;;;;;;;;;;;;;;;;;
2022/03/03 09:13:14;;;;;;;35.45;21.15;;;3.90;99.90;;;;;;5116556;28;20028;-89
2022/03/03 09:15:58;;;;;;;36.72;21.95;;;4.00;99.90;;;;;;5085371;28;20060;-93
2022/03/03 09:18:41;;;;;;;33.08;20.65;;;4.50;99.90;;;;;;5100657;28;20027;-94
2022/03/03 09:25:41;;;;;;;;;;;;;;;;;;;;;
2022/03/03 09:28:30;;;;;;;32.28;20.40;;;8.80;81.60;;;;;;5015330;28;20118;-89
2022/03/03 09:40:24;;;;;;;29.92;20.92;;;8.10;99.90;;;;;;5116592;28;20055;-89
2022/03/03 09:43:27;;;;;;;;;;;;;;;;;;;;;
2022/03/03 09:48:53;;;;;;;30.20;20.00;;;7.70;99.90;;;;;;5115218;28;20427;-88
2022/03/03 09:51:51;;;;;;;29.77;20.48;;;7.70;99.90;;;;;;5115189;28;20445;-91
2022/03/03 09:54:28;;;;;;;30.52;20.63;;;7.50;95.20;;;;;;5110374;28;20080;-89
2022/03/03 09:57:12;;;;;;;30.08;19.58;;;7.70;97.70;;;;;;5114323;28;20051;-90
2022/03/03 10:00:13;;;;;;;29.15;19.52;;;8.30;99.90;;;;;;5098692;28;20092;-90
2022/03/03 10:03:09;;;;;;;;;;;;;;;;;;;;;
2022/03/03 10:05:51;;;;;;;29.92;19.52;;;11.50;72.60;;;;;;5115955;28;20451;-90
2022/03/03 10:08:36;;;;;;;;;;;11.80;54.70;;;;;;5115034;28;20028;-87
2022/03/03 10:11:27;;;;;;;;;;;;;;;;;;;;;
2022/03/03 10:14:20;;;;;;;;;;;;;;;;;;;;;
2022/03/03 10:19:57;;;;;;;27.20;19.00;;;14.10;47.10;;;;;;5080138;28;20511;-90
2022/03/03 10:22:39;;;;;;;28.42;19.45;;;14.30;44.20;;;;;;5090955;28;20028;-90
2022/03/03 10:25:38;;;;;;;;;;;;;;;;;;;;;
2022/03/03 10:28:29;;;;;;;26.60;18.67;;;15.70;43.90;;;;;;5137450;28;20031;-90
2022/03/03 10:31:04;;;;;;;27.65;19.00;;;17.10;44.80;;;;;;5134511;28;20037;-80
2022/03/03 10:33:35;;;;;;;24.48;17.83;;;16.00;41.40;;;;;;5135861;28;20012;-86
2022/03/03 10:36:07;;;;;;;25.60;18.38;;;17.80;41.20;;;;;;5137134;28;20023;-84
2022/03/03 10:38:34;;;;;;;26.25;17.25;;;18.70;41.00;;;;;;5139221;28;20016;-84
2022/03/03 10:41:01;;;;;;;25.17;17.77;;;19.60;41.10;;;;;;5141095;28;20083;-84
2022/03/03 10:43:26;;;;;;;23.15;16.83;;;18.60;37.50;;;;;;5124682;28;20035;-86
2022/03/03 10:46:11;;;;;;;25.15;17.55;;;17.50;35.70;;;;;;5107355;28;20019;-87
2022/03/03 10:48:39;;;;;;;26.35;18.23;;;17.30;36.80;;;;;;5126615;28;20034;-90
2022/03/03 10:51:25;;;;;;;24.27;17.25;;;17.30;37.60;;;;;;5110640;28;20031;-89
2022/03/03 10:54:09;;;;;;;22.75;16.23;;;17.10;35.30;;;;;;5123945;28;20359;-87
2022/03/03 10:56:45;;;;;;;23.25;16.35;;;18.10;38.50;;;;;;5123055;28;20043;-89
2022/03/03 10:59:41;;;;;;;;;;;;;;;;;;;;;
2022/03/03 11:02:18;;;;;;;21.48;16.52;;;20.00;33.20;;;;;;5136468;28;20043;-89
2022/03/03 11:04:44;;;;;;;23.02;17.08;;;19.20;34.90;;;;;;5112364;28;20119;-85
2022/03/03 11:07:27;;;;;;;24.85;16.85;;;19.70;34.80;;;;;;5118843;28;20374;-87
2022/03/03 11:09:53;;;;;;;23.17;16.98;;;19.70;35.80;;;;;;5118615;28;20359;-85
2022/03/03 11:12:19;;;;;;;23.45;16.65;;;19.80;33.40;;;;;;5117893;28;20417;-81
2022/03/03 11:14:46;;;;;;;25.35;16.85;;;19.40;33.00;;;;;;5116542;28;20031;-84
2022/03/03 11:17:14;;;;;;;23.63;16.60;;;19.80;34.00;;;;;;5100112;28;20114;-84
2022/03/03 11:19:40;;;;;;;21.60;15.52;;;19.40;32.60;;;;;;5116367;28;20020;-85
2022/03/03 11:22:06;;;;;;;21.20;16.05;;;18.90;32.20;;;;;;5099487;28;20031;-86
2022/03/03 11:24:38;;;;;;;24.25;15.38;;;18.90;33.50;;;;;;5099494;28;20108;-85
2022/03/03 11:27:05;;;;;;;23.40;15.65;;;20.10;35.00;;;;;;5115801;28;20035;-85
2022/03/03 11:29:37;;;;;;;21.77;16.27;;;21.20;35.50;;;;;;5116847;28;20026;-85
2022/03/03 11:32:17;;;;;;;23.30;16.52;;;20.90;32.00;;;;;;5116633;28;20027;-87
2022/03/03 11:34:46;;;;;;;22.90;14.70;;;19.30;31.40;;;;;;5116176;28;20027;-84
2022/03/03 11:37:24;;;;;;;21.27;15.30;;;19.90;33.90;;;;;;5116578;28;20106;-82
2022/03/03 11:39:53;;;;;;;20.70;15.35;;;19.80;33.90;;;;;;5115928;28;20065;-84
2022/03/03 11:42:27;;;;;;;19.98;14.65;;;18.80;32.80;;;;;;5117525;28;20103;-83
2022/03/03 11:45:15;;;;;;;21.05;14.15;;;18.90;32.20;;;;;;5117728;28;20038;-83
2022/03/03 11:47:46;;;;;;;20.88;14.60;;;19.00;32.40;;;;;;5117940;28;20016;-84
2022/03/03 11:50:18;;;;;;;20.05;14.13;;;20.30;33.80;;;;;;5119149;28;20043;-84
2022/03/03 11:52:49;;;;;;;21.13;13.85;;;20.80;31.30;;;;;;5117319;28;20034;-87
2022/03/03 11:55:35;;;;;;;21.52;14.07;;;20.90;31.70;;;;;;5116856;28;20054;-85
2022/03/03 11:58:08;;;;;;;18.92;13.00;;;20.90;31.50;;;;;;5115905;28;20437;-85
2022/03/03 12:00:57;;;;;;;18.00;12.93;;;20.80;33.00;;;;;;5115535;28;20026;-85
2022/03/03 12:03:23;;;;;;;17.80;12.73;;;21.10;31.90;;;;;;5114897;28;20024;-83
2022/03/03 12:06:08;;;;;;;18.42;12.90;;;21.90;32.40;;;;;;5116668;28;20031;-82
2022/03/03 12:08:39;;;;;;;17.48;12.13;;;20.60;30.30;;;;;;5115112;28;20028;-85
2022/03/03 12:11:11;;;;;;;17.17;12.82;;;21.00;32.20;;;;;;5115311;28;20108;-84
2022/03/03 12:13:39;;;;;;;17.65;12.73;;;21.90;32.10;;;;;;5116446;28;20027;-90
2022/03/03 12:16:23;;;;;;;17.75;12.70;;;18.30;31.80;;;;;;5116563;28;20402;-87
2022/03/03 12:19:04;;;;;;;20.33;13.00;;;18.70;36.40;;;;;;5115470;28;20026;-89
2022/03/03 12:21:42;;;;;;;18.60;12.87;;;17.70;32.80;;;;;;5116844;27;20065;-87
2022/03/03 12:24:13;;;;;;;19.20;13.10;;;18.40;34.60;;;;;;5115918;28;20285;-86
2022/03/03 12:27:00;;;;;;;16.63;12.02;;;17.50;33.60;;;;;;5116241;28;20027;-87
2022/03/03 12:29:36;;;;;;;18.98;12.38;;;18.30;35.50;;;;;;5115969;28;20016;-87
2022/03/03 12:32:26;;;;;;;17.90;11.27;;;19.50;33.80;;;;;;5114732;28;20524;-86
2022/03/03 12:35:03;;;;;;;17.05;11.68;;;18.70;35.70;;;;;;5116631;28;20020;-85
2022/03/03 12:37:30;;;;;;;17.02;11.45;;;19.20;34.50;;;;;;5116249;28;20023;-89
2022/03/03 12:40:12;;;;;;;18.17;12.93;;;20.00;35.10;;;;;;5081917;28;20040;-89
2022/03/03 12:42:38;;;;;;;19.75;13.50;;;19.80;32.90;;;;;;5102741;28;20020;-91
2022/03/03 12:45:38;;;;;;;18.92;12.13;;;19.60;32.30;;;;;;5116812;28;20110;-89
2022/03/03 12:48:05;;;;;;;18.88;12.20;;;18.90;32.70;;;;;;5116654;28;20016;-86
2022/03/03 12:50:33;;;;;;;17.67;11.60;;;20.00;33.40;;;;;;5114038;28;20472;-86
2022/03/03 12:53:05;;;;;;;17.90;12.45;;;20.10;33.50;;;;;;5114582;28;20019;-85
2022/03/03 12:55:38;;;;;;;18.10;12.50;;;18.80;32.20;;;;;;5114535;28;20079;-83
2022/03/03 12:58:06;;;;;;;17.38;12.30;;;18.50;34.60;;;;;;5116092;28;20119;-83
2022/03/03 13:00:43;;;;;;;17.13;12.13;;;17.80;33.50;;;;;;5113962;28;20097;-83
2022/03/03 13:03:10;;;;;;;17.90;12.48;;;17.90;33.50;;;;;;5115051;28;20411;-82
2022/03/03 13:05:58;;;;;;;20.13;12.98;;;19.30;35.20;;;;;;5098075;28;20356;-83
2022/03/03 13:08:35;;;;;;;20.23;13.50;;;18.70;32.20;;;;;;5115515;28;20027;-83
2022/03/03 13:11:11;;;;;;;18.27;12.27;;;18.60;33.50;;;;;;5115954;28;20027;-82
2022/03/03 13:14:02;;;;;;;18.10;12.90;;;19.40;34.20;;;;;;5115495;28;20371;-84
2022/03/03 13:16:28;;;;;;;19.05;13.05;;;19.20;32.80;;;;;;5114676;28;20116;-83
2022/03/03 13:18:55;;;;;;;18.38;11.57;;;18.50;32.30;;;;;;5080376;28;20462;-83
2022/03/03 13:21:25;;;;;;;17.30;11.93;;;19.10;33.50;;;;;;5115486;27;20030;-83
2022/03/03 13:23:56;;;;;;;19.58;12.63;;;18.70;33.20;;;;;;5114518;28;20039;-82
2022/03/03 13:26:43;;;;;;;18.38;13.10;;;19.60;32.50;;;;;;5118274;28;20031;-82
2022/03/03 13:29:23;;;;;;;17.30;11.85;;;18.60;32.80;;;;;;5115820;28;20488;-82
2022/03/03 13:31:49;;;;;;;20.63;13.40;;;18.80;32.50;;;;;;5113927;28;20107;-82
2022/03/03 13:34:25;;;;;;;16.77;11.77;;;18.40;31.60;;;;;;5096526;28;20031;-82
2022/03/03 13:36:54;;;;;;;20.27;12.85;;;18.40;32.50;;;;;;5113689;28;20020;-82
2022/03/03 13:39:33;;;;;;;18.67;12.25;;;18.50;34.00;;;;;;5116954;28;20145;-82
2022/03/03 13:42:04;;;;;;;18.60;12.35;;;19.00;32.30;;;;;;5117739;28;20141;-82
2022/03/03 13:44:32;;;;;;;;;;;19.20;33.20;;;;;;5116806;28;20532;-82
2022/03/03 13:47:11;;;;;;;17.73;11.85;;;18.30;31.80;;;;;;5114301;28;19934;-85
2022/03/03 13:49:50;;;;;;;16.73;10.70;;;17.20;32.40;;;;;;5114093;28;20024;-85
2022/03/03 13:52:33;;;;;;;15.25;9.95;;;17.60;32.40;;;;;;5114269;28;20028;-85
2022/03/03 13:55:17;;;;;;;19.10;10.63;;;19.30;32.50;;;;;;5113993;28;20024;-85
2022/03/03 13:57:42;;;;;;;18.95;11.65;;;18.40;32.10;;;;;;5113363;28;20054;-85
2022/03/03 14:00:38;;;;;;;16.73;11.73;;;18.60;31.20;;;;;;5113361;28;20024;-85
2022/03/03 14:03:09;;;;;;;16.02;10.93;;;18.00;31.60;;;;;;5114549;28;20038;-85